Hlavní strana
METAR-TAF:

METAR-TAF

Letiště :

Chartúm, Súdán

zeměpisná šířka: 15-36N, zeměpisná délka: 032-33E, výška: 382 m

Aktuální stav počasí

Zpráva byla vytvořena před 20 minutami, v 21:30 UTC
Severoseverozápadní vítr 14 kt
Teplota 23°C
Vlhkost vzduchu 14%
Tlak 1014 hPa
Viditelnost 10 km a více
Žádná oblačnost pod 1500 m, nevyskytují se cumulonimby.

METAR: HSSS 222130Z 34014KT CAVOK 23/M06 Q1014 NOSIG

Čas: 00:50 (21:50 UTC)

Předpověď počasí

Zpráva byla vytvořena před 4 hodinami a 50 minutami, v 17:00 UTC
Předpověď platná od 22 v 18 UTC do 23 v 24 UTC
Severoseverozápadní vítr 10 kt s nárazy do 20 kt
Dočasný
od 23 v 03 UTC do 23 v 09 UTC
Viditelnost: 6000 m

TAF: HSSS 221700Z 2218/2324 34010G20KT TEMPO 2303/2309 6000

Stav a předpovědi počasí z více než 4 000 letišť (zprávy METAR a TAF).

Červené a žluté tečky na mapě představují dostupné meteorologické stanice.

Když kurzor umístíte na tečku, zobrazí se název stanice.

Pak kliknutím zobrazíte stav a předpověď počasí.

Chcete-li změnit mapu, kliknutím na zelené tlačítko se znaménkem +mapu přiblížíte, kliknutím na zelené tlačítko se znaménkem – mapu oddálíte a kliknutím na zelené šipky přejdete na sousední mapy.


METAR-TAF: